sensor_id;sensor_type;location;lat;lon;timestamp;P1;durP1;ratioP1;P2;durP2;ratioP2
59424;SDS011;45231;44.826;20.312;2023-04-15T00:00:06;22.80;;;17.53;;
59424;SDS011;45231;44.826;20.312;2023-04-15T00:02:34;22.10;;;16.27;;
59424;SDS011;45231;44.826;20.312;2023-04-15T00:07:27;30.63;;;22.58;;
59424;SDS011;45231;44.826;20.312;2023-04-15T00:09:53;33.03;;;23.45;;
59424;SDS011;45231;44.826;20.312;2023-04-15T00:12:22;29.25;;;22.30;;
59424;SDS011;45231;44.826;20.312;2023-04-15T00:14:48;29.30;;;21.80;;
59424;SDS011;45231;44.826;20.312;2023-04-15T00:17:15;31.45;;;23.55;;
59424;SDS011;45231;44.826;20.312;2023-04-15T00:19:41;36.40;;;24.30;;
59424;SDS011;45231;44.826;20.312;2023-04-15T00:22:08;30.85;;;23.02;;
59424;SDS011;45231;44.826;20.312;2023-04-15T00:24:35;32.78;;;23.30;;
59424;SDS011;45231;44.826;20.312;2023-04-15T00:27:01;33.97;;;24.97;;
59424;SDS011;45231;44.826;20.312;2023-04-15T00:29:27;35.95;;;26.00;;
59424;SDS011;45231;44.826;20.312;2023-04-15T00:31:54;35.63;;;26.17;;
59424;SDS011;45231;44.826;20.312;2023-04-15T00:34:24;33.88;;;23.88;;
59424;SDS011;45231;44.826;20.312;2023-04-15T00:36:50;38.67;;;28.15;;
59424;SDS011;45231;44.826;20.312;2023-04-15T00:39:16;39.05;;;28.58;;
59424;SDS011;45231;44.826;20.312;2023-04-15T00:41:43;39.40;;;28.07;;
59424;SDS011;45231;44.826;20.312;2023-04-15T00:46:36;40.72;;;28.00;;
59424;SDS011;45231;44.826;20.312;2023-04-15T00:49:05;40.00;;;28.13;;
59424;SDS011;45231;44.826;20.312;2023-04-15T00:51:32;36.35;;;26.63;;
59424;SDS011;45231;44.826;20.312;2023-04-15T00:54:00;37.53;;;26.67;;
59424;SDS011;45231;44.826;20.312;2023-04-15T00:58:53;30.65;;;23.05;;
59424;SDS011;45231;44.826;20.312;2023-04-15T01:01:20;34.40;;;24.45;;
59424;SDS011;45231;44.826;20.312;2023-04-15T01:03:49;33.75;;;25.15;;
59424;SDS011;45231;44.826;20.312;2023-04-15T01:06:16;34.97;;;24.95;;
59424;SDS011;45231;44.826;20.312;2023-04-15T01:08:42;37.58;;;25.77;;
59424;SDS011;45231;44.826;20.312;2023-04-15T01:11:09;35.22;;;25.33;;
59424;SDS011;45231;44.826;20.312;2023-04-15T01:13:35;34.03;;;24.13;;
59424;SDS011;45231;44.826;20.312;2023-04-15T01:16:02;35.47;;;24.60;;
59424;SDS011;45231;44.826;20.312;2023-04-15T01:18:28;35.20;;;25.40;;
59424;SDS011;45231;44.826;20.312;2023-04-15T01:20:55;39.45;;;26.35;;
59424;SDS011;45231;44.826;20.312;2023-04-15T01:23:22;39.80;;;26.30;;
59424;SDS011;45231;44.826;20.312;2023-04-15T01:25:48;37.23;;;27.27;;
59424;SDS011;45231;44.826;20.312;2023-04-15T01:28:15;36.30;;;26.45;;
59424;SDS011;45231;44.826;20.312;2023-04-15T01:30:41;41.15;;;28.58;;
59424;SDS011;45231;44.826;20.312;2023-04-15T01:33:07;39.03;;;29.00;;
59424;SDS011;45231;44.826;20.312;2023-04-15T01:35:33;35.75;;;26.98;;
59424;SDS011;45231;44.826;20.312;2023-04-15T01:38:06;37.47;;;26.83;;
59424;SDS011;45231;44.826;20.312;2023-04-15T01:40:32;35.65;;;26.05;;
59424;SDS011;45231;44.826;20.312;2023-04-15T01:42:59;36.70;;;26.40;;
59424;SDS011;45231;44.826;20.312;2023-04-15T01:45:25;45.47;;;29.35;;
59424;SDS011;45231;44.826;20.312;2023-04-15T01:47:51;33.33;;;24.73;;
59424;SDS011;45231;44.826;20.312;2023-04-15T01:50:18;38.13;;;26.88;;
59424;SDS011;45231;44.826;20.312;2023-04-15T01:52:44;39.85;;;28.15;;
59424;SDS011;45231;44.826;20.312;2023-04-15T01:57:38;36.13;;;25.27;;
59424;SDS011;45231;44.826;20.312;2023-04-15T02:00:04;36.00;;;24.93;;
59424;SDS011;45231;44.826;20.312;2023-04-15T02:02:31;37.05;;;24.60;;
59424;SDS011;45231;44.826;20.312;2023-04-15T02:04:58;32.58;;;24.10;;
59424;SDS011;45231;44.826;20.312;2023-04-15T02:07:24;32.00;;;24.33;;
59424;SDS011;45231;44.826;20.312;2023-04-15T02:09:51;36.90;;;24.98;;
59424;SDS011;45231;44.826;20.312;2023-04-15T02:12:17;33.22;;;24.35;;
59424;SDS011;45231;44.826;20.312;2023-04-15T02:14:43;34.05;;;23.90;;
59424;SDS011;45231;44.826;20.312;2023-04-15T02:17:09;31.98;;;23.50;;
59424;SDS011;45231;44.826;20.312;2023-04-15T02:19:35;33.70;;;23.23;;
59424;SDS011;45231;44.826;20.312;2023-04-15T02:22:03;32.75;;;23.55;;
59424;SDS011;45231;44.826;20.312;2023-04-15T02:24:31;31.52;;;23.75;;
59424;SDS011;45231;44.826;20.312;2023-04-15T02:26:57;31.65;;;23.23;;
59424;SDS011;45231;44.826;20.312;2023-04-15T02:29:23;29.20;;;22.50;;
59424;SDS011;45231;44.826;20.312;2023-04-15T02:31:49;31.63;;;23.57;;
59424;SDS011;45231;44.826;20.312;2023-04-15T02:34:15;31.93;;;22.70;;
59424;SDS011;45231;44.826;20.312;2023-04-15T02:36:41;33.15;;;24.00;;
59424;SDS011;45231;44.826;20.312;2023-04-15T02:39:07;37.10;;;24.33;;
59424;SDS011;45231;44.826;20.312;2023-04-15T02:41:34;33.43;;;22.97;;
59424;SDS011;45231;44.826;20.312;2023-04-15T02:44:00;31.50;;;23.25;;
59424;SDS011;45231;44.826;20.312;2023-04-15T02:46:26;34.63;;;24.17;;
59424;SDS011;45231;44.826;20.312;2023-04-15T02:48:52;37.28;;;23.73;;
59424;SDS011;45231;44.826;20.312;2023-04-15T02:51:20;35.53;;;24.35;;
59424;SDS011;45231;44.826;20.312;2023-04-15T02:53:47;33.53;;;23.52;;
59424;SDS011;45231;44.826;20.312;2023-04-15T02:56:13;31.75;;;22.60;;
59424;SDS011;45231;44.826;20.312;2023-04-15T02:58:40;31.65;;;23.52;;
59424;SDS011;45231;44.826;20.312;2023-04-15T03:01:06;32.88;;;24.27;;
59424;SDS011;45231;44.826;20.312;2023-04-15T03:03:35;26.88;;;18.75;;
59424;SDS011;45231;44.826;20.312;2023-04-15T03:06:01;28.30;;;19.07;;
59424;SDS011;45231;44.826;20.312;2023-04-15T03:08:28;25.60;;;17.67;;
59424;SDS011;45231;44.826;20.312;2023-04-15T03:10:54;27.63;;;17.73;;
59424;SDS011;45231;44.826;20.312;2023-04-15T03:13:20;23.88;;;16.88;;
59424;SDS011;45231;44.826;20.312;2023-04-15T03:15:46;23.47;;;15.57;;
59424;SDS011;45231;44.826;20.312;2023-04-15T03:18:12;23.83;;;15.77;;
59424;SDS011;45231;44.826;20.312;2023-04-15T03:20:39;22.13;;;15.10;;
59424;SDS011;45231;44.826;20.312;2023-04-15T03:23:05;26.20;;;15.33;;
59424;SDS011;45231;44.826;20.312;2023-04-15T03:25:31;21.50;;;14.00;;
59424;SDS011;45231;44.826;20.312;2023-04-15T03:27:57;22.55;;;14.10;;
59424;SDS011;45231;44.826;20.312;2023-04-15T03:30:23;22.87;;;14.60;;
59424;SDS011;45231;44.826;20.312;2023-04-15T03:32:49;24.50;;;14.00;;
59424;SDS011;45231;44.826;20.312;2023-04-15T03:35:15;27.03;;;12.83;;
59424;SDS011;45231;44.826;20.312;2023-04-15T03:37:41;20.95;;;11.02;;
59424;SDS011;45231;44.826;20.312;2023-04-15T03:40:07;19.92;;;10.20;;
59424;SDS011;45231;44.826;20.312;2023-04-15T03:42:33;20.63;;;10.45;;
59424;SDS011;45231;44.826;20.312;2023-04-15T03:45:00;19.13;;;8.43;;
59424;SDS011;45231;44.826;20.312;2023-04-15T03:47:26;19.27;;;10.03;;
59424;SDS011;45231;44.826;20.312;2023-04-15T03:49:52;13.48;;;7.97;;
59424;SDS011;45231;44.826;20.312;2023-04-15T03:52:18;18.30;;;9.93;;
59424;SDS011;45231;44.826;20.312;2023-04-15T03:54:44;19.03;;;10.53;;
59424;SDS011;45231;44.826;20.312;2023-04-15T03:57:10;17.10;;;10.77;;
59424;SDS011;45231;44.826;20.312;2023-04-15T03:59:36;18.95;;;11.38;;
59424;SDS011;45231;44.826;20.312;2023-04-15T04:02:02;22.57;;;12.63;;
59424;SDS011;45231;44.826;20.312;2023-04-15T04:04:28;19.77;;;11.60;;
59424;SDS011;45231;44.826;20.312;2023-04-15T04:06:54;21.10;;;12.40;;
59424;SDS011;45231;44.826;20.312;2023-04-15T04:09:20;21.13;;;12.82;;
59424;SDS011;45231;44.826;20.312;2023-04-15T04:11:46;23.70;;;11.70;;
59424;SDS011;45231;44.826;20.312;2023-04-15T04:14:12;19.23;;;12.55;;
59424;SDS011;45231;44.826;20.312;2023-04-15T04:16:38;22.03;;;11.67;;
59424;SDS011;45231;44.826;20.312;2023-04-15T04:19:05;23.38;;;10.80;;
59424;SDS011;45231;44.826;20.312;2023-04-15T04:21:31;16.97;;;9.80;;
59424;SDS011;45231;44.826;20.312;2023-04-15T04:26:24;19.10;;;9.80;;
59424;SDS011;45231;44.826;20.312;2023-04-15T04:28:50;17.37;;;9.43;;
59424;SDS011;45231;44.826;20.312;2023-04-15T04:31:16;15.80;;;9.23;;
59424;SDS011;45231;44.826;20.312;2023-04-15T04:33:42;16.38;;;9.88;;
59424;SDS011;45231;44.826;20.312;2023-04-15T04:36:08;14.77;;;7.60;;
59424;SDS011;45231;44.826;20.312;2023-04-15T04:38:34;18.42;;;9.52;;
59424;SDS011;45231;44.826;20.312;2023-04-15T04:41:00;19.53;;;12.30;;
59424;SDS011;45231;44.826;20.312;2023-04-15T04:43:26;19.80;;;11.87;;
59424;SDS011;45231;44.826;20.312;2023-04-15T04:45:52;16.57;;;10.30;;
59424;SDS011;45231;44.826;20.312;2023-04-15T04:48:18;13.47;;;7.90;;
59424;SDS011;45231;44.826;20.312;2023-04-15T04:50:44;14.83;;;7.93;;
59424;SDS011;45231;44.826;20.312;2023-04-15T04:53:11;17.38;;;8.68;;
59424;SDS011;45231;44.826;20.312;2023-04-15T04:55:37;15.13;;;8.77;;
59424;SDS011;45231;44.826;20.312;2023-04-15T04:58:03;15.13;;;7.53;;
59424;SDS011;45231;44.826;20.312;2023-04-15T05:00:29;13.93;;;7.30;;
59424;SDS011;45231;44.826;20.312;2023-04-15T05:02:55;13.37;;;6.47;;
59424;SDS011;45231;44.826;20.312;2023-04-15T05:05:21;13.15;;;6.57;;
59424;SDS011;45231;44.826;20.312;2023-04-15T05:07:47;14.13;;;7.38;;
59424;SDS011;45231;44.826;20.312;2023-04-15T05:10:14;12.50;;;5.93;;
59424;SDS011;45231;44.826;20.312;2023-04-15T05:12:42;11.15;;;5.20;;
59424;SDS011;45231;44.826;20.312;2023-04-15T05:15:08;9.80;;;5.38;;
59424;SDS011;45231;44.826;20.312;2023-04-15T05:17:34;9.95;;;5.97;;
59424;SDS011;45231;44.826;20.312;2023-04-15T05:20:01;10.85;;;6.13;;
59424;SDS011;45231;44.826;20.312;2023-04-15T05:22:27;10.73;;;5.30;;
59424;SDS011;45231;44.826;20.312;2023-04-15T05:24:54;13.52;;;7.30;;
59424;SDS011;45231;44.826;20.312;2023-04-15T05:27:20;12.70;;;7.18;;
59424;SDS011;45231;44.826;20.312;2023-04-15T05:29:48;10.70;;;5.13;;
59424;SDS011;45231;44.826;20.312;2023-04-15T05:32:14;6.88;;;3.33;;
59424;SDS011;45231;44.826;20.312;2023-04-15T05:34:40;9.05;;;3.88;;
59424;SDS011;45231;44.826;20.312;2023-04-15T05:37:06;10.13;;;4.43;;
59424;SDS011;45231;44.826;20.312;2023-04-15T05:39:32;10.88;;;4.80;;
59424;SDS011;45231;44.826;20.312;2023-04-15T05:41:58;9.60;;;3.63;;
59424;SDS011;45231;44.826;20.312;2023-04-15T05:44:24;10.00;;;3.03;;
59424;SDS011;45231;44.826;20.312;2023-04-15T05:46:50;7.45;;;3.15;;
59424;SDS011;45231;44.826;20.312;2023-04-15T05:51:43;7.40;;;3.72;;
59424;SDS011;45231;44.826;20.312;2023-04-15T05:56:35;9.13;;;3.80;;
59424;SDS011;45231;44.826;20.312;2023-04-15T05:59:01;8.30;;;3.40;;
59424;SDS011;45231;44.826;20.312;2023-04-15T06:01:27;7.88;;;3.13;;
59424;SDS011;45231;44.826;20.312;2023-04-15T06:03:54;19.30;;;4.07;;
59424;SDS011;45231;44.826;20.312;2023-04-15T06:06:20;8.23;;;3.25;;
59424;SDS011;45231;44.826;20.312;2023-04-15T06:08:47;8.48;;;3.10;;
59424;SDS011;45231;44.826;20.312;2023-04-15T06:11:13;8.45;;;3.10;;
59424;SDS011;45231;44.826;20.312;2023-04-15T06:16:05;8.43;;;3.00;;
59424;SDS011;45231;44.826;20.312;2023-04-15T06:18:33;8.07;;;2.88;;
59424;SDS011;45231;44.826;20.312;2023-04-15T06:20:59;6.13;;;2.97;;
59424;SDS011;45231;44.826;20.312;2023-04-15T06:23:25;8.07;;;2.80;;
59424;SDS011;45231;44.826;20.312;2023-04-15T06:28:17;7.28;;;2.30;;
59424;SDS011;45231;44.826;20.312;2023-04-15T06:30:43;5.95;;;2.38;;
59424;SDS011;45231;44.826;20.312;2023-04-15T06:33:10;5.90;;;2.25;;
59424;SDS011;45231;44.826;20.312;2023-04-15T06:35:36;5.20;;;2.10;;
59424;SDS011;45231;44.826;20.312;2023-04-15T06:38:03;5.65;;;2.55;;
59424;SDS011;45231;44.826;20.312;2023-04-15T06:40:29;4.88;;;2.05;;
59424;SDS011;45231;44.826;20.312;2023-04-15T06:42:55;5.22;;;2.00;;
59424;SDS011;45231;44.826;20.312;2023-04-15T06:45:21;6.57;;;1.90;;
59424;SDS011;45231;44.826;20.312;2023-04-15T06:47:47;5.55;;;2.15;;
59424;SDS011;45231;44.826;20.312;2023-04-15T06:50:13;5.07;;;2.22;;
59424;SDS011;45231;44.826;20.312;2023-04-15T06:52:39;4.93;;;1.67;;
59424;SDS011;45231;44.826;20.312;2023-04-15T06:55:06;4.90;;;1.70;;
59424;SDS011;45231;44.826;20.312;2023-04-15T06:57:32;5.00;;;1.98;;
59424;SDS011;45231;44.826;20.312;2023-04-15T06:59:58;4.75;;;1.50;;
59424;SDS011;45231;44.826;20.312;2023-04-15T07:02:25;3.90;;;1.08;;
59424;SDS011;45231;44.826;20.312;2023-04-15T07:04:51;4.25;;;1.30;;
59424;SDS011;45231;44.826;20.312;2023-04-15T07:07:17;3.08;;;1.05;;
59424;SDS011;45231;44.826;20.312;2023-04-15T07:09:43;2.60;;;1.13;;
59424;SDS011;45231;44.826;20.312;2023-04-15T07:12:09;2.20;;;0.95;;
59424;SDS011;45231;44.826;20.312;2023-04-15T07:14:36;2.95;;;1.02;;
59424;SDS011;45231;44.826;20.312;2023-04-15T07:17:02;5.85;;;1.40;;
59424;SDS011;45231;44.826;20.312;2023-04-15T07:19:28;5.63;;;1.52;;
59424;SDS011;45231;44.826;20.312;2023-04-15T07:21:54;8.15;;;1.40;;
59424;SDS011;45231;44.826;20.312;2023-04-15T07:26:50;4.05;;;1.20;;
59424;SDS011;45231;44.826;20.312;2023-04-15T07:29:16;3.53;;;1.10;;
59424;SDS011;45231;44.826;20.312;2023-04-15T07:31:42;2.58;;;1.02;;
59424;SDS011;45231;44.826;20.312;2023-04-15T07:34:08;6.88;;;1.20;;
59424;SDS011;45231;44.826;20.312;2023-04-15T07:36:34;3.50;;;1.02;;
59424;SDS011;45231;44.826;20.312;2023-04-15T07:41:28;2.78;;;0.95;;
59424;SDS011;45231;44.826;20.312;2023-04-15T07:43:54;2.67;;;1.00;;
59424;SDS011;45231;44.826;20.312;2023-04-15T07:46:20;2.75;;;0.88;;
59424;SDS011;45231;44.826;20.312;2023-04-15T07:48:48;3.20;;;0.90;;
59424;SDS011;45231;44.826;20.312;2023-04-15T07:51:15;1.92;;;0.77;;
59424;SDS011;45231;44.826;20.312;2023-04-15T07:53:41;1.85;;;0.77;;
59424;SDS011;45231;44.826;20.312;2023-04-15T07:56:08;2.35;;;0.80;;
59424;SDS011;45231;44.826;20.312;2023-04-15T07:58:35;2.10;;;0.82;;
59424;SDS011;45231;44.826;20.312;2023-04-15T08:03:27;2.75;;;0.82;;
59424;SDS011;45231;44.826;20.312;2023-04-15T08:05:53;3.05;;;0.90;;
59424;SDS011;45231;44.826;20.312;2023-04-15T08:08:19;10.23;;;1.35;;
59424;SDS011;45231;44.826;20.312;2023-04-15T08:10:46;4.75;;;1.15;;
59424;SDS011;45231;44.826;20.312;2023-04-15T08:15:38;4.43;;;1.40;;
59424;SDS011;45231;44.826;20.312;2023-04-15T08:18:04;5.43;;;1.45;;
59424;SDS011;45231;44.826;20.312;2023-04-15T08:22:56;5.20;;;1.30;;
59424;SDS011;45231;44.826;20.312;2023-04-15T08:25:22;3.72;;;1.30;;
59424;SDS011;45231;44.826;20.312;2023-04-15T08:27:48;4.25;;;1.30;;
59424;SDS011;45231;44.826;20.312;2023-04-15T08:30:14;4.35;;;1.48;;
59424;SDS011;45231;44.826;20.312;2023-04-15T08:32:41;3.95;;;1.23;;
59424;SDS011;45231;44.826;20.312;2023-04-15T08:35:07;4.22;;;1.38;;
59424;SDS011;45231;44.826;20.312;2023-04-15T08:37:34;4.35;;;1.70;;
59424;SDS011;45231;44.826;20.312;2023-04-15T08:40:00;3.58;;;1.30;;
59424;SDS011;45231;44.826;20.312;2023-04-15T08:42:27;6.70;;;1.30;;
59424;SDS011;45231;44.826;20.312;2023-04-15T08:44:55;4.25;;;1.27;;
59424;SDS011;45231;44.826;20.312;2023-04-15T08:47:21;3.70;;;1.35;;
59424;SDS011;45231;44.826;20.312;2023-04-15T08:49:48;6.93;;;1.33;;
59424;SDS011;45231;44.826;20.312;2023-04-15T08:52:17;3.40;;;0.77;;
59424;SDS011;45231;44.826;20.312;2023-04-15T08:54:44;3.17;;;1.00;;
59424;SDS011;45231;44.826;20.312;2023-04-15T08:57:11;5.00;;;1.20;;
59424;SDS011;45231;44.826;20.312;2023-04-15T08:59:37;4.93;;;1.30;;
59424;SDS011;45231;44.826;20.312;2023-04-15T09:02:04;4.97;;;1.15;;
59424;SDS011;45231;44.826;20.312;2023-04-15T09:04:30;6.05;;;1.23;;
59424;SDS011;45231;44.826;20.312;2023-04-15T09:06:57;3.05;;;0.82;;
59424;SDS011;45231;44.826;20.312;2023-04-15T09:11:49;2.95;;;0.70;;
59424;SDS011;45231;44.826;20.312;2023-04-15T09:16:58;4.35;;;1.15;;
59424;SDS011;45231;44.826;20.312;2023-04-15T09:19:24;2.13;;;1.00;;
59424;SDS011;45231;44.826;20.312;2023-04-15T09:21:52;2.95;;;1.00;;
59424;SDS011;45231;44.826;20.312;2023-04-15T09:24:19;3.13;;;1.02;;
59424;SDS011;45231;44.826;20.312;2023-04-15T09:29:11;3.45;;;0.90;;
59424;SDS011;45231;44.826;20.312;2023-04-15T09:31:42;1.55;;;0.60;;
59424;SDS011;45231;44.826;20.312;2023-04-15T09:34:08;2.75;;;0.57;;
59424;SDS011;45231;44.826;20.312;2023-04-15T09:36:37;4.38;;;0.85;;
59424;SDS011;45231;44.826;20.312;2023-04-15T09:39:05;5.95;;;0.93;;
59424;SDS011;45231;44.826;20.312;2023-04-15T09:41:31;1.65;;;0.63;;
59424;SDS011;45231;44.826;20.312;2023-04-15T09:46:42;1.75;;;0.63;;
59424;SDS011;45231;44.826;20.312;2023-04-15T09:49:09;2.22;;;0.80;;
59424;SDS011;45231;44.826;20.312;2023-04-15T09:51:36;3.30;;;0.80;;
59424;SDS011;45231;44.826;20.312;2023-04-15T09:54:02;3.45;;;0.70;;
59424;SDS011;45231;44.826;20.312;2023-04-15T09:56:35;3.00;;;0.90;;
59424;SDS011;45231;44.826;20.312;2023-04-15T09:59:03;2.35;;;0.90;;
59424;SDS011;45231;44.826;20.312;2023-04-15T10:01:30;4.78;;;0.93;;
59424;SDS011;45231;44.826;20.312;2023-04-15T10:03:56;2.42;;;0.77;;
59424;SDS011;45231;44.826;20.312;2023-04-15T10:06:24;2.35;;;0.80;;
59424;SDS011;45231;44.826;20.312;2023-04-15T10:08:51;4.10;;;1.23;;
59424;SDS011;45231;44.826;20.312;2023-04-15T10:13:43;4.45;;;1.00;;
59424;SDS011;45231;44.826;20.312;2023-04-15T10:16:11;3.78;;;0.90;;
59424;SDS011;45231;44.826;20.312;2023-04-15T10:18:42;1.70;;;0.73;;
59424;SDS011;45231;44.826;20.312;2023-04-15T10:21:08;3.10;;;1.10;;
59424;SDS011;45231;44.826;20.312;2023-04-15T10:26:01;3.42;;;1.10;;
59424;SDS011;45231;44.826;20.312;2023-04-15T10:28:31;3.65;;;1.00;;
59424;SDS011;45231;44.826;20.312;2023-04-15T10:30:58;4.97;;;1.25;;
59424;SDS011;45231;44.826;20.312;2023-04-15T10:33:28;2.92;;;1.00;;
59424;SDS011;45231;44.826;20.312;2023-04-15T10:35:56;2.50;;;0.90;;
59424;SDS011;45231;44.826;20.312;2023-04-15T10:41:14;3.03;;;1.10;;
59424;SDS011;45231;44.826;20.312;2023-04-15T10:43:46;2.72;;;0.82;;
59424;SDS011;45231;44.826;20.312;2023-04-15T10:46:21;3.45;;;1.08;;
59424;SDS011;45231;44.826;20.312;2023-04-15T10:48:49;2.72;;;0.93;;
59424;SDS011;45231;44.826;20.312;2023-04-15T10:51:25;4.38;;;1.33;;
59424;SDS011;45231;44.826;20.312;2023-04-15T10:53:54;5.50;;;1.38;;
59424;SDS011;45231;44.826;20.312;2023-04-15T10:56:21;4.70;;;1.10;;
59424;SDS011;45231;44.826;20.312;2023-04-15T10:58:49;4.55;;;1.20;;
59424;SDS011;45231;44.826;20.312;2023-04-15T11:01:18;4.15;;;1.05;;
59424;SDS011;45231;44.826;20.312;2023-04-15T11:03:51;3.22;;;0.93;;
59424;SDS011;45231;44.826;20.312;2023-04-15T11:06:21;3.25;;;1.10;;
59424;SDS011;45231;44.826;20.312;2023-04-15T11:09:29;2.72;;;1.00;;
59424;SDS011;45231;44.826;20.312;2023-04-15T11:12:08;3.33;;;1.10;;
59424;SDS011;45231;44.826;20.312;2023-04-15T11:14:38;3.35;;;1.20;;
59424;SDS011;45231;44.826;20.312;2023-04-15T11:17:09;2.45;;;0.93;;
59424;SDS011;45231;44.826;20.312;2023-04-15T11:19:37;4.05;;;1.00;;
59424;SDS011;45231;44.826;20.312;2023-04-15T11:22:08;5.20;;;1.40;;
59424;SDS011;45231;44.826;20.312;2023-04-15T11:24:35;3.53;;;1.02;;
59424;SDS011;45231;44.826;20.312;2023-04-15T11:27:02;3.75;;;1.13;;
59424;SDS011;45231;44.826;20.312;2023-04-15T11:29:31;2.28;;;0.90;;
59424;SDS011;45231;44.826;20.312;2023-04-15T11:32:08;1.77;;;0.88;;
59424;SDS011;45231;44.826;20.312;2023-04-15T11:34:34;3.75;;;1.00;;
59424;SDS011;45231;44.826;20.312;2023-04-15T11:39:27;4.13;;;0.90;;
59424;SDS011;45231;44.826;20.312;2023-04-15T11:41:55;3.03;;;0.90;;
59424;SDS011;45231;44.826;20.312;2023-04-15T11:44:23;2.90;;;0.98;;
59424;SDS011;45231;44.826;20.312;2023-04-15T11:46:51;2.15;;;0.93;;
59424;SDS011;45231;44.826;20.312;2023-04-15T11:49:28;2.03;;;0.98;;
59424;SDS011;45231;44.826;20.312;2023-04-15T11:52:09;1.90;;;0.90;;
59424;SDS011;45231;44.826;20.312;2023-04-15T11:54:38;2.42;;;1.02;;
59424;SDS011;45231;44.826;20.312;2023-04-15T11:57:05;12.82;;;2.17;;
59424;SDS011;45231;44.826;20.312;2023-04-15T11:59:42;3.63;;;1.13;;
59424;SDS011;45231;44.826;20.312;2023-04-15T12:04:35;1.88;;;0.90;;
59424;SDS011;45231;44.826;20.312;2023-04-15T12:07:06;2.38;;;1.00;;
59424;SDS011;45231;44.826;20.312;2023-04-15T12:09:36;2.88;;;0.85;;
59424;SDS011;45231;44.826;20.312;2023-04-15T12:12:04;3.22;;;1.10;;
59424;SDS011;45231;44.826;20.312;2023-04-15T12:14:33;1.45;;;0.85;;
59424;SDS011;45231;44.826;20.312;2023-04-15T12:17:03;2.95;;;0.93;;
59424;SDS011;45231;44.826;20.312;2023-04-15T12:19:36;4.53;;;0.80;;
59424;SDS011;45231;44.826;20.312;2023-04-15T12:22:09;2.85;;;0.77;;
59424;SDS011;45231;44.826;20.312;2023-04-15T12:24:38;2.22;;;0.90;;
59424;SDS011;45231;44.826;20.312;2023-04-15T12:27:07;2.42;;;1.00;;
59424;SDS011;45231;44.826;20.312;2023-04-15T12:29:34;3.35;;;0.82;;
59424;SDS011;45231;44.826;20.312;2023-04-15T12:32:06;3.08;;;1.00;;
59424;SDS011;45231;44.826;20.312;2023-04-15T12:37:21;2.25;;;0.70;;
59424;SDS011;45231;44.826;20.312;2023-04-15T12:39:47;1.52;;;0.70;;
59424;SDS011;45231;44.826;20.312;2023-04-15T12:42:14;11.52;;;1.20;;
59424;SDS011;45231;44.826;20.312;2023-04-15T12:44:47;3.95;;;1.00;;
59424;SDS011;45231;44.826;20.312;2023-04-15T12:47:20;2.78;;;0.90;;
59424;SDS011;45231;44.826;20.312;2023-04-15T12:49:46;3.22;;;1.13;;
59424;SDS011;45231;44.826;20.312;2023-04-15T12:52:13;3.70;;;0.93;;
59424;SDS011;45231;44.826;20.312;2023-04-15T12:54:40;2.80;;;0.90;;
59424;SDS011;45231;44.826;20.312;2023-04-15T12:57:07;2.58;;;0.70;;
59424;SDS011;45231;44.826;20.312;2023-04-15T12:59:35;1.75;;;1.00;;
59424;SDS011;45231;44.826;20.312;2023-04-15T13:02:02;4.97;;;0.93;;
59424;SDS011;45231;44.826;20.312;2023-04-15T13:04:31;3.50;;;1.00;;
59424;SDS011;45231;44.826;20.312;2023-04-15T13:07:02;3.28;;;0.80;;
59424;SDS011;45231;44.826;20.312;2023-04-15T13:11:55;5.30;;;1.17;;
59424;SDS011;45231;44.826;20.312;2023-04-15T13:14:21;2.33;;;0.90;;
59424;SDS011;45231;44.826;20.312;2023-04-15T13:16:47;2.30;;;1.00;;
59424;SDS011;45231;44.826;20.312;2023-04-15T13:19:13;3.70;;;0.85;;
59424;SDS011;45231;44.826;20.312;2023-04-15T13:24:05;2.47;;;0.95;;
59424;SDS011;45231;44.826;20.312;2023-04-15T13:28:58;2.35;;;1.02;;
59424;SDS011;45231;44.826;20.312;2023-04-15T13:31:24;1.73;;;0.68;;
59424;SDS011;45231;44.826;20.312;2023-04-15T13:33:51;3.72;;;1.08;;
59424;SDS011;45231;44.826;20.312;2023-04-15T13:36:17;3.03;;;1.00;;
59424;SDS011;45231;44.826;20.312;2023-04-15T13:38:44;2.88;;;0.93;;
59424;SDS011;45231;44.826;20.312;2023-04-15T13:41:10;2.35;;;0.80;;
59424;SDS011;45231;44.826;20.312;2023-04-15T13:43:36;3.90;;;0.98;;
59424;SDS011;45231;44.826;20.312;2023-04-15T13:46:02;2.85;;;1.10;;
59424;SDS011;45231;44.826;20.312;2023-04-15T13:48:28;2.25;;;0.80;;
59424;SDS011;45231;44.826;20.312;2023-04-15T13:50:54;1.85;;;0.63;;
59424;SDS011;45231;44.826;20.312;2023-04-15T13:53:20;2.70;;;1.00;;
59424;SDS011;45231;44.826;20.312;2023-04-15T13:58:12;3.75;;;0.85;;
59424;SDS011;45231;44.826;20.312;2023-04-15T14:00:38;2.72;;;0.85;;
59424;SDS011;45231;44.826;20.312;2023-04-15T14:05:31;1.77;;;0.70;;
59424;SDS011;45231;44.826;20.312;2023-04-15T14:07:58;2.03;;;0.77;;
59424;SDS011;45231;44.826;20.312;2023-04-15T14:10:24;2.85;;;0.82;;
59424;SDS011;45231;44.826;20.312;2023-04-15T14:12:50;7.72;;;1.00;;
59424;SDS011;45231;44.826;20.312;2023-04-15T14:15:17;3.53;;;0.80;;
59424;SDS011;45231;44.826;20.312;2023-04-15T14:17:45;1.73;;;0.80;;
59424;SDS011;45231;44.826;20.312;2023-04-15T14:20:11;2.53;;;0.90;;
59424;SDS011;45231;44.826;20.312;2023-04-15T14:22:38;1.30;;;0.70;;
59424;SDS011;45231;44.826;20.312;2023-04-15T14:25:05;2.15;;;0.90;;
59424;SDS011;45231;44.826;20.312;2023-04-15T14:27:31;2.92;;;0.85;;
59424;SDS011;45231;44.826;20.312;2023-04-15T14:29:57;2.05;;;0.82;;
59424;SDS011;45231;44.826;20.312;2023-04-15T14:32:24;2.47;;;1.00;;
59424;SDS011;45231;44.826;20.312;2023-04-15T14:34:51;2.47;;;0.80;;
59424;SDS011;45231;44.826;20.312;2023-04-15T14:37:17;2.60;;;1.00;;
59424;SDS011;45231;44.826;20.312;2023-04-15T14:39:43;2.22;;;0.80;;
59424;SDS011;45231;44.826;20.312;2023-04-15T14:42:09;2.08;;;0.80;;
59424;SDS011;45231;44.826;20.312;2023-04-15T14:44:35;2.78;;;1.00;;
59424;SDS011;45231;44.826;20.312;2023-04-15T14:47:01;2.42;;;1.00;;
59424;SDS011;45231;44.826;20.312;2023-04-15T14:49:28;3.45;;;1.10;;
59424;SDS011;45231;44.826;20.312;2023-04-15T14:51:54;2.70;;;1.05;;
59424;SDS011;45231;44.826;20.312;2023-04-15T14:54:20;4.28;;;1.48;;
59424;SDS011;45231;44.826;20.312;2023-04-15T14:56:46;4.20;;;1.20;;
59424;SDS011;45231;44.826;20.312;2023-04-15T14:59:12;4.13;;;1.40;;
59424;SDS011;45231;44.826;20.312;2023-04-15T15:01:38;4.68;;;1.63;;
59424;SDS011;45231;44.826;20.312;2023-04-15T15:06:31;4.22;;;1.48;;
59424;SDS011;45231;44.826;20.312;2023-04-15T15:08:57;5.65;;;1.60;;
59424;SDS011;45231;44.826;20.312;2023-04-15T15:11:23;4.40;;;2.00;;
59424;SDS011;45231;44.826;20.312;2023-04-15T15:13:51;4.32;;;1.80;;
59424;SDS011;45231;44.826;20.312;2023-04-15T15:16:17;3.78;;;1.40;;
59424;SDS011;45231;44.826;20.312;2023-04-15T15:18:43;7.63;;;1.75;;
59424;SDS011;45231;44.826;20.312;2023-04-15T15:21:09;4.25;;;1.65;;
59424;SDS011;45231;44.826;20.312;2023-04-15T15:23:35;12.80;;;1.65;;
59424;SDS011;45231;44.826;20.312;2023-04-15T15:26:01;4.13;;;1.40;;
59424;SDS011;45231;44.826;20.312;2023-04-15T15:28:27;2.08;;;1.00;;
59424;SDS011;45231;44.826;20.312;2023-04-15T15:30:53;4.20;;;1.20;;
59424;SDS011;45231;44.826;20.312;2023-04-15T15:33:20;5.22;;;1.17;;
59424;SDS011;45231;44.826;20.312;2023-04-15T15:35:46;5.50;;;1.30;;
59424;SDS011;45231;44.826;20.312;2023-04-15T15:38:12;2.28;;;1.10;;